createdAt,value
2023-12-28T00:00:21.878Z,-2.32
2023-12-28T00:02:55.555Z,-2.30
2023-12-28T00:05:29.319Z,-2.29
2023-12-28T00:08:02.933Z,-2.30
2023-12-28T00:10:38.228Z,-2.29
2023-12-28T00:13:11.694Z,-2.28
2023-12-28T00:15:45.413Z,-2.30
2023-12-28T00:18:21.496Z,-2.29
2023-12-28T00:20:55.233Z,-2.27
2023-12-28T00:23:28.807Z,-2.28
2023-12-28T00:26:03.284Z,-2.29
2023-12-28T00:28:36.990Z,-2.29
2023-12-28T00:31:11.903Z,-2.30
2023-12-28T00:33:45.918Z,-2.28
2023-12-28T00:36:19.597Z,-2.27
2023-12-28T00:38:54.574Z,-2.25
2023-12-28T00:41:28.200Z,-2.26
2023-12-28T00:44:03.214Z,-2.26
2023-12-28T00:46:36.900Z,-2.23
2023-12-28T00:49:11.982Z,-2.20
2023-12-28T00:51:45.842Z,-2.21
2023-12-28T00:54:19.551Z,-2.24
2023-12-28T00:56:54.249Z,-2.26
2023-12-28T00:59:28.733Z,-2.26
2023-12-28T01:02:02.291Z,-2.27
2023-12-28T01:04:36.043Z,-2.28
2023-12-28T01:07:09.803Z,-2.28
2023-12-28T01:09:43.581Z,-2.27
2023-12-28T01:12:17.162Z,-2.28
2023-12-28T01:14:50.928Z,-2.27
2023-12-28T01:17:24.564Z,-2.26
2023-12-28T01:19:58.283Z,-2.26
2023-12-28T01:22:32.048Z,-2.25
2023-12-28T01:25:07.086Z,-2.27
2023-12-28T01:27:40.856Z,-2.28
2023-12-28T01:30:15.341Z,-2.27
2023-12-28T01:32:48.876Z,-2.29
2023-12-28T01:35:22.644Z,-2.26
2023-12-28T01:37:56.359Z,-2.27
2023-12-28T01:40:30.196Z,-2.26
2023-12-28T01:43:03.800Z,-2.28
2023-12-28T01:45:37.436Z,-2.26
2023-12-28T01:48:12.559Z,-2.26
2023-12-28T01:50:46.620Z,-2.23
2023-12-28T01:53:20.818Z,-2.20
2023-12-28T01:55:55.686Z,-2.19
2023-12-28T01:58:31.197Z,-2.20
2023-12-28T02:01:04.890Z,-2.20
2023-12-28T02:03:38.998Z,-2.22
2023-12-28T02:06:12.991Z,-2.21
2023-12-28T02:08:46.806Z,-2.19
2023-12-28T02:11:20.774Z,-2.16
2023-12-28T02:13:54.789Z,-2.17
2023-12-28T02:16:32.187Z,-2.18
2023-12-28T02:19:08.939Z,-2.19
2023-12-28T02:21:43.575Z,-2.19
2023-12-28T02:24:17.323Z,-2.20
2023-12-28T02:26:50.876Z,-2.22
2023-12-28T02:29:24.456Z,-2.21
2023-12-28T02:32:01.979Z,-2.22
2023-12-28T02:34:38.540Z,-2.25
2023-12-28T02:37:14.467Z,-2.23
2023-12-28T02:39:50.821Z,-2.30
2023-12-28T02:42:24.893Z,-2.33
2023-12-28T02:44:58.590Z,-2.35
2023-12-28T02:47:33.215Z,-2.36
2023-12-28T02:50:08.416Z,-2.35
2023-12-28T02:52:42.026Z,-2.37
2023-12-28T02:55:15.841Z,-2.36
2023-12-28T02:57:49.860Z,-2.34
2023-12-28T03:00:24.185Z,-2.37
2023-12-28T03:02:59.399Z,-2.38
2023-12-28T03:05:34.135Z,-2.39
2023-12-28T03:08:08.497Z,-2.39
2023-12-28T03:10:42.016Z,-2.38
2023-12-28T03:13:15.469Z,-2.37
2023-12-28T03:15:48.966Z,-2.37
2023-12-28T03:18:22.720Z,-2.34
2023-12-28T03:20:56.505Z,-2.34
2023-12-28T03:23:30.119Z,-2.36
2023-12-28T03:26:05.597Z,-2.38
2023-12-28T03:28:42.648Z,-2.42
2023-12-28T03:31:16.732Z,-2.43
2023-12-28T03:33:50.463Z,-2.57
2023-12-28T03:36:24.765Z,-2.46
2023-12-28T03:38:59.558Z,-2.49
2023-12-28T03:41:33.161Z,-2.50
2023-12-28T03:44:06.908Z,-2.49
2023-12-28T03:46:40.860Z,-2.51
2023-12-28T03:49:14.537Z,-2.51
2023-12-28T03:51:48.252Z,-2.50
2023-12-28T03:54:22.483Z,-2.52
2023-12-28T03:56:55.842Z,-2.50
2023-12-28T03:59:29.727Z,-2.52
2023-12-28T04:02:03.619Z,-2.50
2023-12-28T04:04:37.273Z,-2.51
2023-12-28T04:07:11.448Z,-2.50
2023-12-28T04:09:45.005Z,-2.49
2023-12-28T04:12:18.738Z,-2.46
2023-12-28T04:14:52.273Z,-2.44
2023-12-28T04:17:25.880Z,-2.44
2023-12-28T04:19:59.500Z,-2.42
2023-12-28T04:22:35.406Z,-2.42
2023-12-28T04:25:09.950Z,-2.42
2023-12-28T04:27:43.995Z,-2.43
2023-12-28T04:30:18.421Z,-2.45
2023-12-28T04:32:52.345Z,-2.45
2023-12-28T04:35:25.911Z,-2.49
2023-12-28T04:37:59.522Z,-2.53
2023-12-28T04:40:34.781Z,-2.61
2023-12-28T04:43:08.797Z,-2.66
2023-12-28T04:45:42.384Z,-2.69
2023-12-28T04:48:16.348Z,-2.67
2023-12-28T04:50:50.430Z,-2.66
2023-12-28T04:53:24.054Z,-2.66
2023-12-28T04:55:59.186Z,-2.66
2023-12-28T04:58:32.794Z,-2.66
2023-12-28T05:01:07.155Z,-2.71
2023-12-28T05:03:40.834Z,-2.75
2023-12-28T05:06:14.390Z,-2.77
2023-12-28T05:08:48.045Z,-2.83
2023-12-28T05:11:21.505Z,-2.85
2023-12-28T05:13:55.765Z,-2.88
2023-12-28T05:16:29.402Z,-2.83
2023-12-28T05:19:03.170Z,-2.79
2023-12-28T05:21:37.012Z,-2.75
2023-12-28T05:24:10.735Z,-2.70
2023-12-28T05:26:44.278Z,-2.65
2023-12-28T05:29:17.901Z,-2.61
2023-12-28T05:31:51.525Z,-2.57
2023-12-28T05:34:25.365Z,-2.54
2023-12-28T05:36:58.954Z,-2.53
2023-12-28T05:39:32.705Z,-2.47
2023-12-28T05:42:06.944Z,-2.48
2023-12-28T05:44:40.615Z,-2.47
2023-12-28T05:47:14.301Z,-2.45
2023-12-28T05:49:48.960Z,-2.45
2023-12-28T05:52:22.825Z,-2.42
2023-12-28T05:54:58.048Z,-2.39
2023-12-28T05:57:32.496Z,-2.33
2023-12-28T06:00:07.985Z,-2.28
2023-12-28T06:02:43.408Z,-2.28
2023-12-28T06:05:17.148Z,-2.21
2023-12-28T06:07:50.619Z,-2.19
2023-12-28T06:10:25.351Z,-2.19
2023-12-28T06:12:59.208Z,-2.17
2023-12-28T06:15:34.096Z,-2.14
2023-12-28T06:18:08.458Z,-2.15
2023-12-28T06:20:42.049Z,-2.14
2023-12-28T06:23:15.800Z,-2.23
2023-12-28T06:25:49.506Z,-2.14
2023-12-28T06:28:23.178Z,-2.11
2023-12-28T06:30:58.304Z,-2.08
2023-12-28T06:33:32.868Z,-2.07
2023-12-28T06:36:11.162Z,-2.08
2023-12-28T06:38:44.764Z,-2.19
2023-12-28T06:41:18.393Z,-2.02
2023-12-28T06:43:51.932Z,-2.00
2023-12-28T06:46:25.558Z,-1.91
2023-12-28T06:49:00.855Z,-1.89
2023-12-28T06:51:34.990Z,-1.88
2023-12-28T06:54:08.691Z,-1.84
2023-12-28T06:56:42.397Z,-1.79
2023-12-28T06:59:16.638Z,-1.81
2023-12-28T07:01:50.959Z,-1.80
2023-12-28T07:04:26.776Z,-1.78
2023-12-28T07:07:00.338Z,-1.68
2023-12-28T07:09:33.949Z,-1.63
2023-12-28T07:12:09.184Z,-1.62
2023-12-28T07:14:42.522Z,-1.62
2023-12-28T07:17:17.710Z,-1.64
2023-12-28T07:19:51.500Z,-1.69
2023-12-28T07:22:25.126Z,-1.72
2023-12-28T07:24:58.669Z,-1.73
2023-12-28T07:27:33.911Z,-1.72
2023-12-28T07:30:10.054Z,-1.70
2023-12-28T07:32:43.798Z,-1.69
2023-12-28T07:35:17.847Z,-1.63
2023-12-28T07:37:51.695Z,-1.66
2023-12-28T07:40:25.159Z,-1.67
2023-12-28T07:42:58.879Z,-1.57
2023-12-28T07:45:33.353Z,-1.53
2023-12-28T07:48:09.099Z,-1.52
2023-12-28T07:50:42.755Z,-1.55
2023-12-28T07:53:16.353Z,-1.55
2023-12-28T07:55:50.084Z,-1.52
2023-12-28T07:58:23.612Z,-1.43
2023-12-28T08:00:57.359Z,-1.30
2023-12-28T08:03:30.904Z,-1.20
2023-12-28T08:06:04.672Z,-1.16
2023-12-28T08:08:38.659Z,-1.06
2023-12-28T08:11:13.424Z,-1.11
2023-12-28T08:13:48.005Z,-1.26
2023-12-28T08:16:21.706Z,-1.17
2023-12-28T08:18:55.634Z,-1.19
2023-12-28T08:21:29.334Z,-1.28
2023-12-28T08:24:02.681Z,-1.32
2023-12-28T08:26:36.206Z,-1.35
2023-12-28T08:29:10.160Z,-1.43
2023-12-28T08:31:47.980Z,-1.41
2023-12-28T08:34:18.644Z,-1.44
2023-12-28T08:36:53.602Z,-1.45
2023-12-28T08:39:27.258Z,-1.47
2023-12-28T08:42:01.113Z,-1.48
2023-12-28T08:44:35.099Z,-1.51
2023-12-28T08:47:09.323Z,-1.50
2023-12-28T08:49:43.299Z,-1.50
2023-12-28T08:52:17.089Z,-1.51
2023-12-28T08:54:50.709Z,-1.48
2023-12-28T08:57:35.381Z,-1.51
2023-12-28T09:00:01.459Z,-1.48
2023-12-28T09:02:37.382Z,-1.44
2023-12-28T09:05:12.026Z,-1.39
2023-12-28T09:07:45.681Z,-1.37
2023-12-28T09:10:19.881Z,-1.36
2023-12-28T09:12:53.684Z,-1.46
2023-12-28T09:15:27.423Z,-1.49
2023-12-28T09:18:01.818Z,-1.49
2023-12-28T09:20:36.557Z,-1.51
2023-12-28T09:23:11.184Z,-1.50
2023-12-28T09:25:45.111Z,-1.43
2023-12-28T09:28:18.585Z,-1.43
2023-12-28T09:30:52.332Z,-1.30
2023-12-28T09:33:26.378Z,-1.23
2023-12-28T09:36:01.050Z,-1.20
2023-12-28T09:38:34.768Z,-1.18
2023-12-28T09:41:13.143Z,-1.14
2023-12-28T09:43:54.259Z,-1.10
2023-12-28T09:46:28.660Z,-1.10
2023-12-28T09:49:02.531Z,-1.06
2023-12-28T09:51:36.882Z,-0.94
2023-12-28T09:54:11.398Z,-0.72
2023-12-28T09:56:45.737Z,-0.57
2023-12-28T09:59:19.978Z,-0.18
2023-12-28T10:01:54.124Z,-0.41
2023-12-28T10:04:30.049Z,-0.58
2023-12-28T10:07:03.928Z,-0.75
2023-12-28T10:09:37.743Z,-0.81
2023-12-28T10:12:12.149Z,-0.78
2023-12-28T10:14:46.646Z,-0.81
2023-12-28T10:17:20.416Z,-1.01
2023-12-28T10:19:57.100Z,-1.23
2023-12-28T10:22:31.762Z,-1.42
2023-12-28T10:25:06.767Z,-1.55
2023-12-28T10:27:43.525Z,-1.54
2023-12-28T10:30:17.823Z,-1.47
2023-12-28T10:32:52.059Z,-1.44
2023-12-28T10:35:25.912Z,-1.46
2023-12-28T10:38:03.548Z,-1.45
2023-12-28T10:40:38.036Z,-1.30
2023-12-28T10:43:13.807Z,-1.11
2023-12-28T10:45:51.391Z,-0.96
2023-12-28T10:48:29.142Z,-0.97
2023-12-28T10:51:02.718Z,-0.95
2023-12-28T10:53:40.277Z,-0.94
2023-12-28T10:56:19.595Z,-0.98
2023-12-28T10:58:55.501Z,-0.96
2023-12-28T11:01:32.833Z,-0.82
2023-12-28T11:04:10.854Z,-0.55
2023-12-28T11:06:47.640Z,-0.50
2023-12-28T11:09:23.094Z,-0.76
2023-12-28T11:12:01.128Z,-0.94
2023-12-28T11:14:36.724Z,-0.96
2023-12-28T11:17:11.792Z,-0.83
2023-12-28T11:19:47.211Z,-0.79
2023-12-28T11:22:22.078Z,-0.89
2023-12-28T11:24:56.892Z,-0.92
2023-12-28T11:27:38.256Z,-0.94
2023-12-28T11:30:15.536Z,-0.98
2023-12-28T11:32:49.501Z,-1.10
2023-12-28T11:35:23.219Z,-1.20
2023-12-28T11:37:58.274Z,-1.22
2023-12-28T11:40:33.172Z,-1.30
2023-12-28T11:43:08.800Z,-1.38
2023-12-28T11:45:44.075Z,-1.46
2023-12-28T11:48:26.693Z,-1.60
2023-12-28T11:51:01.388Z,-1.74
2023-12-28T11:53:36.799Z,-1.90
2023-12-28T11:56:12.315Z,-2.07
2023-12-28T11:58:47.334Z,-2.16
2023-12-28T12:01:21.203Z,-2.17
2023-12-28T12:03:55.154Z,-2.08
2023-12-28T12:06:28.917Z,-2.10
2023-12-28T12:09:02.389Z,-2.11
2023-12-28T12:11:36.132Z,-2.19
2023-12-28T12:14:13.487Z,-2.32
2023-12-28T12:16:48.539Z,-2.52
2023-12-28T12:19:22.469Z,-2.63
2023-12-28T12:21:56.866Z,-2.72
2023-12-28T12:24:30.319Z,-2.81
2023-12-28T12:27:05.687Z,-2.92
2023-12-28T12:29:39.195Z,-2.99
2023-12-28T12:32:13.466Z,-3.04
2023-12-28T12:34:47.147Z,-3.05
2023-12-28T12:37:20.958Z,-3.07
2023-12-28T12:39:55.522Z,-3.11
2023-12-28T12:42:29.206Z,-3.13
2023-12-28T12:45:03.488Z,-3.07
2023-12-28T12:47:37.770Z,-3.02
2023-12-28T12:50:13.634Z,-2.96
2023-12-28T12:52:47.602Z,-2.93
2023-12-28T12:55:22.065Z,-2.88
2023-12-28T12:57:57.443Z,-2.89
2023-12-28T13:00:31.391Z,-2.88
2023-12-28T13:03:05.096Z,-2.94
2023-12-28T13:05:39.368Z,-2.94
2023-12-28T13:08:12.807Z,-2.95
2023-12-28T13:10:46.505Z,-3.04
2023-12-28T13:13:20.326Z,-3.08
2023-12-28T13:15:54.201Z,-3.19
2023-12-28T13:18:27.890Z,-3.25
2023-12-28T13:21:01.610Z,-3.33
2023-12-28T13:23:35.135Z,-3.37
2023-12-28T13:26:08.936Z,-3.37
2023-12-28T13:28:43.867Z,-3.36
2023-12-28T13:31:20.005Z,-3.30
2023-12-28T13:33:54.028Z,-3.25
2023-12-28T13:36:29.854Z,-3.18
2023-12-28T13:39:03.924Z,-3.16
2023-12-28T13:41:37.625Z,-3.14
2023-12-28T13:44:13.445Z,-3.15
2023-12-28T13:46:47.365Z,-3.14
2023-12-28T13:49:21.199Z,-3.16
2023-12-28T13:51:54.875Z,-3.10
2023-12-28T13:54:29.522Z,-3.11
2023-12-28T13:57:02.897Z,-3.10
2023-12-28T13:59:36.350Z,-3.11
2023-12-28T14:02:09.788Z,-3.11
2023-12-28T14:04:43.419Z,-3.11
2023-12-28T14:07:17.702Z,-3.08
2023-12-28T14:09:51.294Z,-3.03
2023-12-28T14:12:25.581Z,-3.00
2023-12-28T14:14:59.831Z,-2.96
2023-12-28T14:17:35.258Z,-3.01
2023-12-28T14:20:12.917Z,-3.04
2023-12-28T14:22:48.366Z,-3.00
2023-12-28T14:25:23.879Z,-3.02
2023-12-28T14:27:59.031Z,-3.08
2023-12-28T14:30:34.285Z,-3.12
2023-12-28T14:33:09.862Z,-3.12
2023-12-28T14:35:47.423Z,-3.12
2023-12-28T14:38:20.053Z,-3.16
2023-12-28T14:40:53.789Z,-3.20
2023-12-28T14:43:27.605Z,-3.18
2023-12-28T14:46:01.583Z,-3.19
2023-12-28T14:48:35.742Z,-3.18
2023-12-28T14:51:09.335Z,-3.16
2023-12-28T14:53:43.018Z,-3.17
2023-12-28T14:56:16.853Z,-3.16
2023-12-28T14:58:50.838Z,-3.15
2023-12-28T15:01:26.795Z,-3.14
2023-12-28T15:04:03.468Z,-3.16
2023-12-28T15:06:37.291Z,-3.12
2023-12-28T15:09:11.307Z,-3.16
2023-12-28T15:11:49.066Z,-3.16
2023-12-28T15:14:23.639Z,-3.17
2023-12-28T15:16:58.905Z,-3.15
2023-12-28T15:19:34.059Z,-3.20
2023-12-28T15:22:09.337Z,-3.25
2023-12-28T15:24:44.873Z,-3.29
2023-12-28T15:27:18.749Z,-3.28
2023-12-28T15:29:52.631Z,-3.28
2023-12-28T15:32:26.534Z,-3.25
2023-12-28T15:35:02.374Z,-3.24
2023-12-28T15:37:35.574Z,-3.23
2023-12-28T15:40:11.584Z,-3.20
2023-12-28T15:42:47.022Z,-3.19
2023-12-28T15:45:20.844Z,-3.15
2023-12-28T15:47:54.872Z,-3.12
2023-12-28T15:50:28.650Z,-3.14
2023-12-28T15:53:02.329Z,-3.19
2023-12-28T15:55:35.894Z,-3.18
2023-12-28T15:58:09.733Z,-3.21
2023-12-28T16:00:44.845Z,-3.23
2023-12-28T16:03:18.448Z,-3.21
2023-12-28T16:05:52.431Z,-3.24
2023-12-28T16:08:25.900Z,-3.22
2023-12-28T16:11:01.069Z,-3.22
2023-12-28T16:13:38.403Z,-3.23
2023-12-28T16:16:14.344Z,-3.23
2023-12-28T16:18:54.581Z,-3.27
2023-12-28T16:21:31.535Z,-3.32
2023-12-28T16:24:05.359Z,-3.32
2023-12-28T16:26:43.465Z,-3.28
2023-12-28T16:29:17.169Z,-3.25
2023-12-28T16:31:51.618Z,-3.23
2023-12-28T16:34:25.427Z,-3.29
2023-12-28T16:36:59.312Z,-3.30
2023-12-28T16:39:33.210Z,-3.33
2023-12-28T16:42:07.986Z,-3.32
2023-12-28T16:44:44.874Z,-3.31
2023-12-28T16:47:18.643Z,-3.33
2023-12-28T16:49:52.430Z,-3.34
2023-12-28T16:52:26.197Z,-3.36
2023-12-28T16:55:00.093Z,-3.36
2023-12-28T16:57:35.336Z,-3.38
2023-12-28T17:00:12.795Z,-3.38
2023-12-28T17:02:46.591Z,-3.39
2023-12-28T17:05:23.860Z,-3.39
2023-12-28T17:07:58.514Z,-3.39
2023-12-28T17:10:35.245Z,-3.35
2023-12-28T17:13:11.790Z,-3.35
2023-12-28T17:15:46.937Z,-3.38
2023-12-28T17:18:24.398Z,-3.40
2023-12-28T17:20:58.618Z,-3.41
2023-12-28T17:23:38.845Z,-3.40
2023-12-28T17:26:15.578Z,-3.43
2023-12-28T17:28:52.399Z,-3.46
2023-12-28T17:31:29.084Z,-3.41
2023-12-28T17:34:04.248Z,-3.39
2023-12-28T17:36:39.468Z,-3.37
2023-12-28T17:39:14.586Z,-3.36
2023-12-28T17:41:50.182Z,-3.33
2023-12-28T17:44:26.853Z,-3.41
2023-12-28T17:47:02.860Z,-3.42
2023-12-28T17:49:39.374Z,-3.47
2023-12-28T17:52:15.627Z,-3.45
2023-12-28T17:54:49.305Z,-3.45
2023-12-28T17:57:23.159Z,-3.45
2023-12-28T17:59:57.159Z,-3.48
2023-12-28T18:02:30.738Z,-3.48
2023-12-28T18:05:05.016Z,-3.42
2023-12-28T18:07:39.314Z,-3.42
2023-12-28T18:10:13.453Z,-3.41
2023-12-28T18:12:47.392Z,-3.39
2023-12-28T18:15:21.224Z,-3.47
2023-12-28T18:17:55.069Z,-3.45
2023-12-28T18:20:28.790Z,-3.44
2023-12-28T18:23:02.520Z,-3.38
2023-12-28T18:25:49.390Z,-3.40
2023-12-28T18:28:23.781Z,-3.44
2023-12-28T18:30:57.800Z,-3.46
2023-12-28T18:33:32.450Z,-3.45
2023-12-28T18:36:09.985Z,-3.44
2023-12-28T18:38:43.491Z,-3.45
2023-12-28T18:41:17.258Z,-3.43
2023-12-28T18:43:51.140Z,-3.44
2023-12-28T18:46:26.064Z,-3.45
2023-12-28T18:49:01.352Z,-3.67
2023-12-28T18:51:34.982Z,-3.51
2023-12-28T18:54:08.506Z,-3.48
2023-12-28T18:56:42.090Z,-3.49
2023-12-28T18:59:15.803Z,-3.47
2023-12-28T19:01:50.845Z,-3.50
2023-12-28T19:04:25.044Z,-3.50
2023-12-28T19:06:59.255Z,-3.50
2023-12-28T19:09:32.848Z,-3.53
2023-12-28T19:12:08.781Z,-3.56
2023-12-28T19:14:44.817Z,-3.54
2023-12-28T19:17:18.316Z,-3.52
2023-12-28T19:19:53.133Z,-3.51
2023-12-28T19:22:27.428Z,-3.51
2023-12-28T19:25:01.336Z,-3.56
2023-12-28T19:27:36.344Z,-3.56
2023-12-28T19:30:13.431Z,-3.54
2023-12-28T19:32:47.929Z,-3.56
2023-12-28T19:35:21.755Z,-3.53
2023-12-28T19:37:56.485Z,-3.53
2023-12-28T19:40:30.149Z,-3.63
2023-12-28T19:43:04.123Z,-3.73
2023-12-28T19:45:37.730Z,-3.72
2023-12-28T19:48:12.161Z,-3.73
2023-12-28T19:50:46.244Z,-3.67
2023-12-28T19:53:20.121Z,-3.66
2023-12-28T19:55:54.060Z,-3.66
2023-12-28T19:58:27.670Z,-3.65
2023-12-28T20:01:01.385Z,-3.62
2023-12-28T20:03:35.589Z,-3.62
2023-12-28T20:06:11.506Z,-3.65
2023-12-28T20:08:47.227Z,-3.70
2023-12-28T20:11:21.966Z,-3.67
2023-12-28T20:13:55.866Z,-3.69
2023-12-28T20:16:30.365Z,-3.71
2023-12-28T20:19:04.770Z,-3.70
2023-12-28T20:21:40.224Z,-3.70
2023-12-28T20:24:14.291Z,-3.68
2023-12-28T20:26:48.336Z,-3.66
2023-12-28T20:29:22.737Z,-3.67
2023-12-28T20:31:57.192Z,-3.65
2023-12-28T20:34:31.051Z,-3.66
2023-12-28T20:37:04.952Z,-3.65
2023-12-28T20:39:38.636Z,-3.65
2023-12-28T20:42:13.082Z,-3.68
2023-12-28T20:44:46.688Z,-3.67
2023-12-28T20:47:21.626Z,-3.67
2023-12-28T20:49:56.394Z,-3.62
2023-12-28T20:52:30.030Z,-3.62
2023-12-28T20:55:04.039Z,-3.61
2023-12-28T20:57:37.891Z,-3.58
2023-12-28T21:00:15.236Z,-3.56
2023-12-28T21:02:48.881Z,-3.55
2023-12-28T21:05:22.886Z,-3.58
2023-12-28T21:07:56.670Z,-3.57
2023-12-28T21:10:30.492Z,-3.57
2023-12-28T21:13:05.470Z,-3.58
2023-12-28T21:15:39.217Z,-3.57
2023-12-28T21:18:19.669Z,-3.58
2023-12-28T21:21:02.369Z,-3.60
2023-12-28T21:23:24.665Z,-3.61
2023-12-28T21:25:58.214Z,-3.63
2023-12-28T21:28:31.809Z,-3.66
2023-12-28T21:31:06.241Z,-3.67
2023-12-28T21:33:41.786Z,-3.66
2023-12-28T21:36:15.400Z,-3.60
2023-12-28T21:38:49.019Z,-3.59
2023-12-28T21:41:22.668Z,-3.62
2023-12-28T21:43:56.232Z,-3.63
2023-12-28T21:46:30.130Z,-3.63
2023-12-28T21:49:05.339Z,-3.61
2023-12-28T21:51:40.491Z,-3.61
2023-12-28T21:54:14.067Z,-3.65
2023-12-28T21:56:47.754Z,-3.65
2023-12-28T21:59:22.918Z,-3.65
2023-12-28T22:01:56.922Z,-3.64
2023-12-28T22:04:30.744Z,-3.63
2023-12-28T22:07:04.292Z,-3.67
2023-12-28T22:09:38.227Z,-3.69
2023-12-28T22:12:12.093Z,-3.70
2023-12-28T22:14:45.436Z,-3.71
2023-12-28T22:17:19.316Z,-3.72
2023-12-28T22:19:53.332Z,-3.69
2023-12-28T22:22:27.005Z,-3.67
2023-12-28T22:25:00.519Z,-3.71
2023-12-28T22:27:34.564Z,-3.72
2023-12-28T22:30:10.328Z,-3.72
2023-12-28T22:32:44.074Z,-3.67
2023-12-28T22:35:18.315Z,-3.65
2023-12-28T22:37:51.976Z,-3.64
2023-12-28T22:40:25.919Z,-3.60
2023-12-28T22:42:59.880Z,-3.60
2023-12-28T22:45:33.756Z,-3.58
2023-12-28T22:48:08.924Z,-3.60
2023-12-28T22:50:42.363Z,-3.59
2023-12-28T22:53:15.846Z,-3.56
2023-12-28T22:55:49.468Z,-3.52
2023-12-28T22:58:22.851Z,-3.48
2023-12-28T23:00:56.936Z,-3.43
2023-12-28T23:03:30.797Z,-3.37
2023-12-28T23:06:04.741Z,-3.36
2023-12-28T23:08:38.300Z,-3.39
2023-12-28T23:11:11.785Z,-3.43
2023-12-28T23:13:46.278Z,-3.46
2023-12-28T23:16:19.928Z,-3.49
2023-12-28T23:18:53.896Z,-3.46
2023-12-28T23:21:27.274Z,-3.45
2023-12-28T23:24:00.620Z,-3.44
2023-12-28T23:26:34.334Z,-3.43
2023-12-28T23:29:07.983Z,-3.45
2023-12-28T23:31:41.648Z,-3.46
2023-12-28T23:34:22.484Z,-3.47
2023-12-28T23:36:50.730Z,-3.43
2023-12-28T23:39:24.209Z,-3.41
2023-12-28T23:41:58.033Z,-3.38
2023-12-28T23:44:31.691Z,-3.36
2023-12-28T23:47:05.479Z,-3.36
2023-12-28T23:49:39.161Z,-3.43
2023-12-28T23:52:12.679Z,-3.40
2023-12-28T23:54:46.373Z,-3.34
2023-12-28T23:57:19.923Z,-3.34
2023-12-28T23:59:53.920Z,-3.35
